Terminal Aerodrome Forecast
Issued by NWS Norman, OK

Home | Current Version | Previous Version | Text Only | Print | Product List | Glossary On
Versions: 1 2 3 4 5 6 7 8 9 10 11 12 13 14 15 16 17 18 19 20 21 22 23 24 25 26 27 28 29 30
000
FTUS44 KOUN 160528
TAFOKC
TAF
KOKC 160528Z 1606/1706 28012G20KT P6SM -RA BKN040 OVC250
      TEMPO 1606/1608 VRB20KT -TSRA BKN035CB
     FM161000 18010KT P6SM BKN040 PROB30 1620/1624 TSRA BKN030CB
     FM170000 09006KT 6SM -TSRA OVC040CB=

USA.gov is the U.S. government's official web portal to all federal, state and local government web resources and services.